Time;durP1;ratioP1;P1;durP2;ratioP2;P2;SDS_P1;SDS_P2;PMS_P1;PMS_P2;Temp;Humidity;BMP_temperature;BMP_pressure;BME280_temperature;BME280_humidity;BME280_pressure;Samples;Min_cycle;Max_cycle;Signal;HPM_P1;HPM_P2
2022/12/19 00:02:18;;;;;;;;;;;;;;;-3.66;100.00;99195.13;5120424;28;19955;-60
2022/12/19 00:04:46;;;;;;;;;;;;;;;-3.64;100.00;99180.13;5122421;28;19979;-60
2022/12/19 00:07:12;;;;;;;;;;;;;;;-3.62;100.00;99165.13;5124197;28;19962;-59
2022/12/19 00:09:39;;;;;;;;;;;;;;;-3.68;100.00;99126.53;5122858;28;19966;-59
2022/12/19 00:12:05;;;;;;;;;;;;;;;-3.70;100.00;99125.06;5120413;28;20015;-59
2022/12/19 00:14:31;;;;;;;;;;;;;;;-3.49;100.00;99152.59;5120355;28;19999;-58
2022/12/19 00:16:58;;;;;;;;;;;;;;;-3.08;100.00;99179.19;5112022;28;19928;-60
2022/12/19 00:19:24;;;;;;;;;;;;;;;-3.05;100.00;99181.53;5111668;28;19930;-60
2022/12/19 00:21:52;;;;;;;;;;;;;;;-3.13;100.00;99168.38;5111585;28;19996;-58
2022/12/19 00:24:18;;;;;;;;;;;;;;;-3.28;100.00;99166.22;5128200;27;19924;-60
2022/12/19 00:26:45;;;;;;;;;;;;;;;-3.07;100.00;99173.03;5121490;28;19969;-60
2022/12/19 00:29:11;;;;;;;;;;;;;;;-3.00;100.00;99168.88;5123451;28;19930;-60
2022/12/19 00:31:37;;;;;;;;;;;;;;;-2.61;100.00;99185.09;5122718;28;19955;-59
2022/12/19 00:34:04;;;;;;;;;;;;;;;-2.51;100.00;99197.16;5119720;28;19987;-60
2022/12/19 00:36:31;;;;;;;;;;;;;;;-2.56;100.00;99201.16;5119753;28;19996;-60
2022/12/19 00:38:59;;;;;;;;;;;;;;;-2.69;100.00;99204.13;5111566;28;19987;-60
2022/12/19 00:41:27;;;;;;;;;;;;;;;-2.78;100.00;99211.06;5111162;28;20004;-59
2022/12/19 00:43:53;;;;;;;;;;;;;;;-2.68;100.00;99205.78;5110912;28;19970;-59
2022/12/19 00:46:20;;;;;;;;;;;;;;;-2.64;100.00;99212.38;5110963;28;19988;-59
2022/12/19 00:48:46;;;;;;;;;;;;;;;-2.59;100.00;99209.31;5110816;28;19932;-60
2022/12/19 00:51:14;;;;;;;;;;;;;;;-2.77;100.00;99201.44;5110927;28;19979;-60
2022/12/19 00:53:40;;;;;;;;;;;;;;;-2.92;100.00;99190.69;5126527;27;19974;-59
2022/12/19 00:56:10;;;;;;;;;;;;;;;-3.23;100.00;99197.16;5119440;28;19946;-59
2022/12/19 00:58:37;;;;;;;;;;;;;;;-2.91;100.00;99191.50;5101855;28;19927;-59
2022/12/19 01:01:05;;;;;;;;;;;;;;;-2.76;100.00;99187.41;5138757;27;20002;-60
2022/12/19 01:03:31;;;;;;;;;;;;;;;-2.99;100.00;99173.94;5122617;28;20003;-59
2022/12/19 01:05:58;;;;;;;;;;;;;;;-2.88;100.00;99170.31;5110862;28;19984;-60
2022/12/19 01:08:24;;;;;;;;;;;;;;;-3.15;100.00;99165.06;5110882;28;20015;-60
2022/12/19 01:10:50;;;;;;;;;;;;;;;-3.18;100.00;99142.66;5110678;28;19924;-60
2022/12/19 01:13:19;;;;;;;;;;;;;;;-3.18;100.00;99134.00;5110613;28;19924;-59
2022/12/19 01:15:45;;;;;;;;;;;;;;;-3.03;100.00;99130.75;5110311;28;19924;-59
2022/12/19 01:18:11;;;;;;;;;;;;;;;-3.21;100.00;99123.84;5110513;28;19995;-59
2022/12/19 01:20:38;;;;;;;;;;;;;;;-3.11;100.00;99114.19;5110430;28;19991;-59
2022/12/19 01:23:05;;;;;;;;;;;;;;;-3.22;100.00;99124.84;5123345;27;19924;-60
2022/12/19 01:25:32;;;;;;;;;;;;;;;-3.27;100.00;99115.66;5122225;28;19962;-59
2022/12/19 01:27:58;;;;;;;;;;;;;;;-3.33;100.00;99121.44;5110140;28;19935;-61
2022/12/19 01:30:27;;;;;;;;;;;;;;;-3.36;100.00;99116.50;5109909;28;19935;-60
2022/12/19 01:32:53;;;;;;;;;;;;;;;-3.39;100.00;99122.03;5109996;28;19924;-60
2022/12/19 01:35:19;;;;;;;;;;;;;;;-3.47;100.00;99134.19;5109900;28;19928;-58
2022/12/19 01:37:46;;;;;;;;;;;;;;;-3.39;100.00;99132.47;5110092;28;19940;-60
2022/12/19 01:40:13;;;;;;;;;;;;;;;-3.51;100.00;99133.63;5109930;28;19928;-62
2022/12/19 01:42:39;;;;;;;;;;;;;;;-3.49;100.00;99136.91;5109922;28;19991;-60
2022/12/19 01:45:23;;;;;;;;;;;;;;;-3.39;100.00;99150.75;5109997;28;20004;-59
2022/12/19 01:47:51;;;;;;;;;;;;;;;-3.38;100.00;99155.03;5109803;28;19996;-60
2022/12/19 01:50:21;;;;;;;;;;;;;;;-3.33;100.00;99160.63;5109878;28;19955;-60
2022/12/19 01:52:47;;;;;;;;;;;;;;;-3.30;100.00;99143.84;5120258;27;19962;-59
2022/12/19 01:55:14;;;;;;;;;;;;;;;-3.44;100.00;99139.94;5122078;28;19924;-60
2022/12/19 01:57:40;;;;;;;;;;;;;;;-3.49;100.00;99134.31;5120657;28;19987;-60
2022/12/19 02:00:08;;;;;;;;;;;;;;;-3.49;100.00;99138.69;5118181;28;19924;-60
2022/12/19 02:02:37;;;;;;;;;;;;;;;-3.56;100.00;99135.84;5118460;28;20133;-60
2022/12/19 02:05:05;;;;;;;;;;;;;;;-3.57;100.00;99123.78;5121711;28;20512;-61
2022/12/19 02:07:33;;;;;;;;;;;;;;;-3.54;100.00;99107.00;5121672;28;19982;-59
2022/12/19 02:09:59;;;;;;;;;;;;;;;-3.59;100.00;99096.97;5118070;28;19919;-60
2022/12/19 02:12:27;;;;;;;;;;;;;;;-3.71;100.00;99079.06;5117849;28;20027;-60
2022/12/19 02:14:54;;;;;;;;;;;;;;;-3.31;100.00;99093.38;5102419;28;19924;-59
2022/12/19 02:17:24;;;;;;;;;;;;;;;-2.71;100.00;99127.66;5121362;28;20063;-59
2022/12/19 02:20:09;;;;;;;;;;;;;;;-3.04;100.00;99100.38;5118882;28;19941;-59
2022/12/19 02:22:44;;;;;;;;;;;;;;;-3.33;100.00;99084.88;5126715;27;19930;-60
2022/12/19 02:25:33;;;;;;;;;;;;;;;-3.28;100.00;99111.38;5121180;28;19979;-59
2022/12/19 02:28:19;;;;;;;;;;;;;;;-3.04;100.00;99131.75;5117952;28;19924;-59
2022/12/19 02:30:54;;;;;;;;;;;;;;;-2.97;100.00;99122.31;5119382;28;19989;-59
2022/12/19 02:33:25;;;;;;;;;;;;;;;-3.28;100.00;99113.97;5121086;28;19991;-58
2022/12/19 02:35:55;;;;;;;;;;;;;;;-3.19;100.00;99114.09;5117459;28;21317;-59
2022/12/19 02:38:28;;;;;;;;;;;;;;;-3.21;100.00;99108.19;5117407;28;19955;-58
2022/12/19 02:40:56;;;;;;;;;;;;;;;-3.04;100.00;99116.06;5120786;28;20790;-60
2022/12/19 02:43:23;;;;;;;;;;;;;;;-3.00;100.00;99113.97;5120987;28;19971;-59
2022/12/19 02:45:52;;;;;;;;;;;;;;;-3.15;100.00;99121.47;5118459;28;19923;-59
2022/12/19 02:48:18;;;;;;;;;;;;;;;-3.03;100.00;99116.88;5117463;28;19930;-59
2022/12/19 02:50:45;;;;;;;;;;;;;;;-3.21;100.00;99110.78;5119146;28;19928;-60
2022/12/19 02:53:13;;;;;;;;;;;;;;;-2.08;100.00;99138.81;5129096;28;19934;-59
2022/12/19 02:55:43;;;;;;;;;;;;;;;-2.30;100.00;99132.28;5119731;28;19995;-60
2022/12/19 02:58:17;;;;;;;;;;;;;;;-2.74;100.00;99109.66;5117351;28;19996;-58
2022/12/19 03:00:50;;;;;;;;;;;;;;;-2.70;100.00;99118.03;5119011;28;19991;-60
2022/12/19 03:03:21;;;;;;;;;;;;;;;-2.79;100.00;99124.97;5120894;28;19967;-60
2022/12/19 03:05:54;;;;;;;;;;;;;;;-2.75;100.00;99115.84;5118571;28;19987;-60
2022/12/19 03:08:24;;;;;;;;;;;;;;;-2.78;100.00;99118.75;5117176;28;19924;-59
2022/12/19 03:10:55;;;;;;;;;;;;;;;-2.81;100.00;99132.13;5119981;28;19983;-59
2022/12/19 03:13:22;;;;;;;;;;;;;;;-2.68;100.00;99140.44;5120737;28;19987;-59
2022/12/19 03:15:49;;;;;;;;;;;;;;;-2.49;100.00;99136.84;5118724;28;20013;-60
2022/12/19 03:18:16;;;;;;;;;;;;;;;-2.34;100.00;99125.69;5120614;28;19951;-58
2022/12/19 03:20:45;;;;;;;;;;;;;;;-2.29;100.00;99144.34;5122956;28;19987;-60
2022/12/19 03:23:12;;;;;;;;;;;;;;;-2.47;100.00;99133.09;5133322;27;20011;-59
2022/12/19 03:25:40;;;;;;;;;;;;;;;-2.37;100.00;99146.09;5123734;28;20529;-60
2022/12/19 03:28:10;;;;;;;;;;;;;;;-2.34;100.00;99145.78;5121054;28;19983;-59
2022/12/19 03:30:38;;;;;;;;;;;;;;;-2.41;100.00;99153.41;5121509;28;19966;-60
2022/12/19 03:33:06;;;;;;;;;;;;;;;-1.99;100.00;99165.84;5124527;28;19983;-59
2022/12/19 03:35:33;;;;;;;;;;;;;;;-1.89;100.00;99170.00;5124352;28;19990;-60
2022/12/19 03:38:03;;;;;;;;;;;;;;;-2.08;100.00;99172.84;5120951;28;19931;-60
2022/12/19 03:40:30;;;;;;;;;;;;;;;-1.81;100.00;99174.50;5120628;28;19987;-60
2022/12/19 03:43:08;;;;;;;;;;;;;;;-2.08;100.00;99169.41;5124060;28;20022;-59
2022/12/19 03:45:39;;;;;;;;;;;;;;;-2.40;100.00;99152.44;5124096;28;19931;-59
2022/12/19 03:48:08;;;;;;;;;;;;;;;-2.49;100.00;99145.50;5120770;28;19983;-59
2022/12/19 03:50:39;;;;;;;;;;;;;;;-2.56;100.00;99135.78;5120914;28;19981;-60
2022/12/19 03:53:13;;;;;;;;;;;;;;;-2.30;100.00;99137.50;5132555;27;19924;-59
2022/12/19 03:55:43;;;;;;;;;;;;;;;-2.03;100.00;99139.16;5123291;28;19951;-59
2022/12/19 03:58:10;;;;;;;;;;;;;;;-2.21;100.00;99141.81;5120704;28;19924;-60
2022/12/19 04:00:41;;;;;;;;;;;;;;;-2.35;100.00;99134.50;5120879;28;19924;-60
2022/12/19 04:03:08;;;;;;;;;;;;;;;-2.44;100.00;99127.56;5123894;28;19924;-59
2022/12/19 04:05:36;;;;;;;;;;;;;;;-2.53;100.00;99144.16;5123331;28;19983;-59
2022/12/19 04:08:04;;;;;;;;;;;;;;;-2.60;100.00;99143.09;5120122;28;20018;-59
2022/12/19 04:10:34;;;;;;;;;;;;;;;-2.83;100.00;99139.31;5119852;28;20646;-58
2022/12/19 04:13:02;;;;;;;;;;;;;;;-2.80;100.00;99128.53;5119898;28;19920;-59
2022/12/19 04:15:33;;;;;;;;;;;;;;;-2.69;100.00;99125.69;5119873;28;19978;-59
2022/12/19 04:18:03;;;;;;;;;;;;;;;-2.89;100.00;99118.97;5119948;28;20018;-59
2022/12/19 04:20:30;;;;;;;;;;;;;;;-3.03;100.00;99094.16;5120008;28;19963;-59
2022/12/19 04:23:00;;;;;;;;;;;;;;;-3.00;100.00;99100.91;5131641;27;19949;-59
2022/12/19 04:25:29;;;;;;;;;;;;;;;-1.68;100.00;99188.84;5123235;28;19920;-60
2022/12/19 04:27:58;;;;;;;;;;;;;;;-1.83;100.00;99152.88;5119601;28;20332;-60
2022/12/19 04:30:24;;;;;;;;;;;;;;;-1.68;100.00;99201.09;5118893;28;19963;-58
2022/12/19 04:32:51;;;;;;;;;;;;;;;-1.24;100.00;99186.91;5122279;28;19979;-58
2022/12/19 04:35:18;;;;;;;;;;;;;;;-2.01;100.00;99165.19;5122963;28;19995;-59
2022/12/19 04:37:44;;;;;;;;;;;;;;;-1.92;100.00;99159.03;5121441;28;19991;-59
2022/12/19 04:40:11;;;;;;;;;;;;;;;-1.71;100.00;99175.22;5119562;28;19924;-59
2022/12/19 04:42:37;;;;;;;;;;;;;;;-2.14;100.00;99177.84;5120078;28;19924;-59
2022/12/19 04:45:06;;;;;;;;;;;;;;;-1.79;100.00;99210.00;5123115;28;19947;-60
2022/12/19 04:47:32;;;;;;;;;;;;;;;-2.38;100.00;99175.84;5122859;28;20212;-59
2022/12/19 04:49:59;;;;;;;;;;;;;;;-1.79;100.00;99186.44;5119564;28;19924;-59
2022/12/19 04:52:25;;;;;;;;;;;;;;;-2.19;100.00;99192.19;5125482;27;19924;-60
2022/12/19 04:54:51;;;;;;;;;;;;;;;-1.73;100.00;99219.88;5123744;27;20075;-60
2022/12/19 04:57:17;;;;;;;;;;;;;;;-1.97;100.00;99211.03;5122892;28;20323;-58
2022/12/19 04:59:44;;;;;;;;;;;;;;;-1.31;100.00;99199.03;5121019;28;20015;-60
2022/12/19 05:02:11;;;;;;;;;;;;;;;-2.09;100.00;99196.53;5119477;28;19983;-58
2022/12/19 05:04:38;;;;;;;;;;;;;;;-2.80;100.00;99149.47;5119697;28;19991;-59
2022/12/19 05:07:04;;;;;;;;;;;;;;;-2.56;100.00;99131.38;5122796;28;20013;-59
2022/12/19 05:09:30;;;;;;;;;;;;;;;-2.52;100.00;99142.38;5122739;28;19974;-59
2022/12/19 05:11:57;;;;;;;;;;;;;;;-2.50;100.00;99137.81;5119568;28;19991;-59
2022/12/19 05:14:23;;;;;;;;;;;;;;;-2.23;100.00;99112.34;5118968;28;19975;-59
2022/12/19 05:16:49;;;;;;;;;;;;;;;-1.89;100.00;99140.41;5121317;28;19930;-60
2022/12/19 05:19:17;;;;;;;;;;;;;;;-2.33;100.00;99116.88;5122495;28;20018;-59
2022/12/19 05:21:44;;;;;;;;;;;;;;;-1.88;100.00;99131.56;5120330;28;19947;-60
2022/12/19 05:24:10;;;;;;;;;;;;;;;-2.08;100.00;99149.28;5127101;27;19928;-60
2022/12/19 05:26:36;;;;;;;;;;;;;;;-2.25;100.00;99124.78;5119186;28;19924;-59
2022/12/19 05:29:03;;;;;;;;;;;;;;;-2.34;100.00;99146.63;5121911;28;20007;-60
2022/12/19 05:31:29;;;;;;;;;;;;;;;-2.54;100.00;99090.22;5122092;28;19983;-59
2022/12/19 05:33:55;;;;;;;;;;;;;;;-2.50;100.00;99119.50;5119265;28;19924;-60
2022/12/19 05:36:23;;;;;;;;;;;;;;;-2.66;100.00;99085.38;5118555;28;19959;-60
2022/12/19 05:38:49;;;;;;;;;;;;;;;-2.78;100.00;99074.31;5121043;28;19977;-60
2022/12/19 05:41:17;;;;;;;;;;;;;;;-2.92;100.00;99054.75;5121889;28;19975;-58
2022/12/19 05:43:44;;;;;;;;;;;;;;;-2.89;100.00;99035.34;5120579;28;19923;-59
2022/12/19 05:46:11;;;;;;;;;;;;;;;-2.92;100.00;99035.63;5118622;28;19924;-59
2022/12/19 05:48:37;;;;;;;;;;;;;;;-2.82;100.00;99052.06;5119441;28;19980;-60
2022/12/19 05:51:04;;;;;;;;;;;;;;;-3.03;100.00;99030.66;5122253;28;19923;-60
2022/12/19 05:53:31;;;;;;;;;;;;;;;-2.47;100.00;99088.63;5130846;27;19979;-59
2022/12/19 05:56:07;;;;;;;;;;;;;;;-1.80;100.00;99113.31;5110381;28;19984;-60
2022/12/19 05:58:33;;;;;;;;;;;;;;;-1.36;100.00;99127.91;5110352;28;19984;-59
2022/12/19 06:01:02;;;;;;;;;;;;;;;-1.92;100.00;99089.16;5110321;28;19923;-59
2022/12/19 06:03:29;;;;;;;;;;;;;;;-2.64;100.00;99084.25;5110038;28;19931;-60
2022/12/19 06:05:55;;;;;;;;;;;;;;;-2.77;100.00;99086.41;5109859;28;19924;-59
2022/12/19 06:08:21;;;;;;;;;;;;;;;-2.61;100.00;99101.44;5110084;28;19987;-60
2022/12/19 06:10:48;;;;;;;;;;;;;;;-1.82;100.00;99136.19;5109983;28;20014;-59
2022/12/19 06:13:15;;;;;;;;;;;;;;;-1.29;100.00;99142.03;5109984;28;19926;-60
2022/12/19 06:15:42;;;;;;;;;;;;;;;-1.14;100.00;99189.41;5109898;28;19924;-60
2022/12/19 06:18:08;;;;;;;;;;;;;;;-0.97;100.00;99174.59;5109774;28;19944;-60
2022/12/19 06:20:34;;;;;;;;;;;;;;;-0.84;100.00;99188.06;5109904;28;19987;-60
2022/12/19 06:23:01;;;;;;;;;;;;;;;-0.72;100.00;99184.16;5122445;27;19924;-59
2022/12/19 06:25:27;;;;;;;;;;;;;;;-0.66;100.00;99186.97;5121654;28;19924;-60
2022/12/19 06:27:53;;;;;;;;;;;;;;;-0.60;100.00;99178.47;5118617;28;19932;-60
2022/12/19 06:30:21;;;;;;;;;;;;;;;-0.61;100.00;99168.94;5117922;28;19958;-60
2022/12/19 06:32:47;;;;;;;;;;;;;;;-0.97;100.00;99179.81;5101752;28;19928;-59
2022/12/19 06:35:13;;;;;;;;;;;;;;;-0.75;100.00;99179.25;5121563;28;19987;-59
2022/12/19 06:37:40;;;;;;;;;;;;;;;-0.68;100.00;99164.50;5120172;28;19983;-59
2022/12/19 06:40:07;;;;;;;;;;;;;;;-1.16;100.00;99155.53;5118033;28;20317;-59
2022/12/19 06:42:52;;;;;;;;;;;;;;;-1.65;100.00;99157.09;5120663;28;19999;-60
2022/12/19 06:45:18;;;;;;;;;;;;;;;-2.11;100.00;99156.59;5121485;28;19934;-59
2022/12/19 06:47:46;;;;;;;;;;;;;;;-2.31;100.00;99155.94;5119528;28;19983;-61
2022/12/19 06:50:12;;;;;;;;;;;;;;;-2.04;100.00;99161.06;5118074;28;19930;-59
2022/12/19 06:52:39;;;;;;;;;;;;;;;-1.65;100.00;99172.81;5126298;27;19992;-59
2022/12/19 06:55:06;;;;;;;;;;;;;;;-1.10;100.00;99190.75;5121344;28;19934;-60
2022/12/19 06:57:32;;;;;;;;;;;;;;;-1.33;100.00;99174.75;5121126;28;20020;-60
2022/12/19 06:59:58;;;;;;;;;;;;;;;-0.96;100.00;99181.47;5109222;28;19992;-59
2022/12/19 07:02:28;;;;;;;;;;;;;;;-0.90;100.00;99193.97;5091109;28;20000;-60
2022/12/19 07:04:59;;;;;;;;;;;;;;;-1.37;100.00;99196.19;5109180;28;19988;-59
2022/12/19 07:07:25;;;;;;;;;;;;;;;-2.00;100.00;99179.91;5108848;28;19971;-60
2022/12/19 07:09:52;;;;;;;;;;;;;;;-1.70;100.00;99187.31;5108960;28;19983;-60
2022/12/19 07:12:18;;;;;;;;;;;;;;;-1.12;100.00;99185.69;5108923;28;20014;-59
2022/12/19 07:14:44;;;;;;;;;;;;;;;-1.83;100.00;99174.66;5109351;28;19979;-60
2022/12/19 07:17:12;;;;;;;;;;;;;;;-2.08;100.00;99175.44;5109081;28;20012;-60
2022/12/19 07:19:39;;;;;;;;;;;;;;;-2.18;100.00;99166.88;5108956;28;20316;-59
2022/12/19 07:22:07;;;;;;;;;;;;;;;-2.48;100.00;99144.53;5109924;28;19950;-59
2022/12/19 07:24:34;;;;;;;;;;;;;;;-2.54;100.00;99139.91;5124283;28;19974;-59
2022/12/19 07:27:00;;;;;;;;;;;;;;;-2.50;100.00;99127.34;5121137;28;19963;-59
2022/12/19 07:29:27;;;;;;;;;;;;;;;-2.59;100.00;99144.75;5120778;28;20341;-59
2022/12/19 07:31:53;;;;;;;;;;;;;;;-2.51;100.00;99139.63;5117763;28;19932;-59
2022/12/19 07:34:19;;;;;;;;;;;;;;;-2.57;100.00;99145.44;5117281;28;19987;-59
2022/12/19 07:36:46;;;;;;;;;;;;;;;-2.50;100.00;99143.03;5119024;28;19980;-59
2022/12/19 07:39:13;;;;;;;;;;;;;;;-2.50;100.00;99146.47;5120705;28;19924;-58
2022/12/19 07:41:40;;;;;;;;;;;;;;;-2.59;100.00;99147.38;5101539;28;19971;-59
2022/12/19 07:44:07;;;;;;;;;;;;;;;-2.54;100.00;99155.59;5117232;28;19924;-59
2022/12/19 07:46:33;;;;;;;;;;;;;;;-2.49;100.00;99139.44;5116961;28;19924;-60
2022/12/19 07:48:59;;;;;;;;;;;;;;;-2.25;100.00;99144.88;5120462;28;19970;-59
2022/12/19 07:51:26;;;;;;;;;;;;;;;-1.69;100.00;99166.22;5102435;28;20014;-59
2022/12/19 07:53:52;;;;;;;;;;;;;;;-1.44;100.00;99172.41;5126398;27;19960;-59
2022/12/19 07:56:20;;;;;;;;;;;;;;;-1.74;100.00;99172.91;5098694;28;19992;-60
2022/12/19 07:58:46;;;;;;;;;;;;;;;-2.04;100.00;99166.31;5118715;28;19967;-59
2022/12/19 08:01:12;;;;;;;;;;;;;;;-1.80;100.00;99171.72;5120719;28;19945;-59
2022/12/19 08:03:39;;;;;;;;;;;;;;;-1.74;100.00;99168.50;5121399;28;19991;-59
2022/12/19 08:06:06;;;;;;;;;;;;;;;-1.65;100.00;99188.53;5121019;28;19924;-60
2022/12/19 08:08:33;;;;;;;;;;;;;;;-1.60;100.00;99190.66;5120529;28;19925;-59
2022/12/19 08:11:05;;;;;;;;;;;;;;;-2.04;100.00;99191.69;5120758;28;19983;-60
2022/12/19 08:13:33;;;;;;;;;;;;;;;-2.14;100.00;99198.78;5120389;28;19924;-60
2022/12/19 08:15:59;;;;;;;;;;;;;;;-2.27;100.00;99188.69;5111910;28;19987;-60
2022/12/19 08:18:26;;;;;;;;;;;;;;;-2.29;100.00;99188.84;5093941;28;19924;-59
2022/12/19 08:20:52;;;;;;;;;;;;;;;-2.30;100.00;99175.91;5111830;28;20018;-59
2022/12/19 08:23:18;;;;;;;;;;;;;;;-2.23;100.00;99177.78;5126573;27;19923;-59
2022/12/19 08:25:45;;;;;;;;;;;;;;;-2.14;100.00;99178.69;5122327;28;19978;-60
2022/12/19 08:28:11;;;;;;;;;;;;;;;-2.12;100.00;99181.13;5120414;28;19943;-60
2022/12/19 08:30:39;;;;;;;;;;;;;;;-2.25;100.00;99177.09;5120753;28;19931;-60
2022/12/19 08:33:05;;;;;;;;;;;;;;;-2.24;100.00;99181.38;5123898;28;19938;-59
2022/12/19 08:35:32;;;;;;;;;;;;;;;-2.27;100.00;99173.81;5123723;28;19951;-59
2022/12/19 08:37:58;;;;;;;;;;;;;;;-2.19;100.00;99170.44;5101921;28;19995;-58
2022/12/19 08:40:25;;;;;;;;;;;;;;;-2.26;100.00;99166.81;5120205;28;19928;-60
2022/12/19 08:42:51;;;;;;;;;;;;;;;-2.17;100.00;99165.06;5122600;28;20000;-59
2022/12/19 08:45:18;;;;;;;;;;;;;;;-2.22;100.00;99155.88;5123404;28;19983;-61
2022/12/19 08:47:45;;;;;;;;;;;;;;;-2.20;100.00;99163.59;5121776;28;19950;-60
2022/12/19 08:50:12;;;;;;;;;;;;;;;-2.17;100.00;99152.00;5119954;28;19924;-59
2022/12/19 08:52:39;;;;;;;;;;;;;;;-2.14;100.00;99168.22;5128966;27;20001;-59
2022/12/19 08:55:06;;;;;;;;;;;;;;;-2.09;100.00;99162.50;5123392;28;20651;-61
2022/12/19 08:57:32;;;;;;;;;;;;;;;-2.11;100.00;99164.47;5123098;28;19923;-60
2022/12/19 08:59:58;;;;;;;;;;;;;;;-2.11;100.00;99161.84;5123320;28;19979;-61
2022/12/19 09:02:25;;;;;;;;;;;;;;;-2.05;100.00;99161.22;5122993;28;19977;-60
2022/12/19 09:04:52;;;;;;;;;;;;;;;-1.95;100.00;99165.38;5120660;28;19971;-59
2022/12/19 09:07:18;;;;;;;;;;;;;;;-1.96;100.00;99155.09;5101372;28;20019;-59
2022/12/19 09:09:45;;;;;;;;;;;;;;;-1.97;100.00;99153.44;5121235;28;19991;-61
2022/12/19 09:12:12;;;;;;;;;;;;;;;-2.03;100.00;99149.63;5123242;28;19999;-60
2022/12/19 09:14:38;;;;;;;;;;;;;;;-1.97;100.00;99150.81;5121267;28;19983;-59
2022/12/19 09:17:04;;;;;;;;;;;;;;;-1.87;100.00;99154.16;5119446;28;19932;-60
2022/12/19 09:19:31;;;;;;;;;;;;;;;-1.92;100.00;99154.59;5119180;28;20196;-59
2022/12/19 09:21:59;;;;;;;;;;;;;;;-1.83;100.00;99150.28;5123085;28;19959;-59
2022/12/19 09:24:25;;;;;;;;;;;;;;;-1.94;100.00;99146.09;5128566;27;20220;-58
2022/12/19 09:26:51;;;;;;;;;;;;;;;-1.94;100.00;99143.47;5122477;28;19928;-59
2022/12/19 09:29:18;;;;;;;;;;;;;;;-1.89;100.00;99129.94;5122896;28;19995;-59
2022/12/19 09:31:44;;;;;;;;;;;;;;;-1.81;100.00;99132.59;5120938;28;19919;-59
2022/12/19 09:34:10;;;;;;;;;;;;;;;-1.76;100.00;99131.16;5119165;28;19924;-58
2022/12/19 09:36:37;;;;;;;;;;;;;;;-1.75;100.00;99124.94;5119356;28;19996;-59
2022/12/19 09:39:04;;;;;;;;;;;;;;;-1.74;100.00;99123.16;5122875;28;19954;-61
2022/12/19 09:41:38;;;;;;;;;;;;;;;-1.70;100.00;99111.38;5122275;28;19991;-59
2022/12/19 09:44:09;;;;;;;;;;;;;;;-1.56;100.00;99116.03;5119230;28;19928;-59
2022/12/19 09:46:40;;;;;;;;;;;;;;;-1.56;100.00;99110.81;5119162;28;19999;-63
2022/12/19 09:49:11;;;;;;;;;;;;;;;-1.64;100.00;99108.94;5122061;28;19924;-59
2022/12/19 09:51:40;;;;;;;;;;;;;;;-1.57;100.00;99103.09;5121365;28;19959;-59
2022/12/19 09:54:11;;;;;;;;;;;;;;;-1.64;100.00;99097.69;5127203;27;19995;-59
2022/12/19 09:56:39;;;;;;;;;;;;;;;-1.63;100.00;99099.31;5119157;28;20260;-60
2022/12/19 09:59:12;;;;;;;;;;;;;;;-1.60;100.00;99106.84;5122052;28;19971;-60
2022/12/19 10:01:44;;;;;;;;;;;;;;;-1.49;100.00;99111.00;5120920;28;19955;-59
2022/12/19 10:04:14;;;;;;;;;;;;;;;-1.42;100.00;99101.50;5118554;28;19924;-59
2022/12/19 10:06:40;;;;;;;;;;;;;;;-1.42;100.00;99097.09;5119423;28;19950;-60
2022/12/19 10:09:11;;;;;;;;;;;;;;;-1.30;100.00;99093.19;5121818;28;19991;-60
2022/12/19 10:11:45;;;;;;;;;;;;;;;-1.41;100.00;99098.75;5120855;28;20030;-59
2022/12/19 10:14:22;;;;;;;;;;;;;;;-1.42;100.00;99091.84;5118069;28;19924;-60
2022/12/19 10:16:51;;;;;;;;;;;;;;;-1.32;100.00;99081.25;5120029;28;20018;-58
2022/12/19 10:19:22;;;;;;;;;;;;;;;-1.28;100.00;99088.66;5121243;28;19990;-60
2022/12/19 10:21:53;;;;;;;;;;;;;;;-1.28;100.00;99088.66;5119086;28;19987;-59
2022/12/19 10:24:29;;;;;;;;;;;;;;;-1.18;100.00;99078.03;5126480;27;19930;-60
2022/12/19 10:26:58;;;;;;;;;;;;;;;-1.13;100.00;99096.69;5120098;28;19932;-59
2022/12/19 10:29:38;;;;;;;;;;;;;;;-1.09;100.00;99092.78;5120938;28;19932;-62
2022/12/19 10:32:07;;;;;;;;;;;;;;;-1.02;100.00;99087.72;5117671;28;19928;-60
2022/12/19 10:34:36;;;;;;;;;;;;;;;-0.94;100.00;99090.34;5117604;28;19928;-60
2022/12/19 10:37:10;;;;;;;;;;;;;;;-0.92;100.00;99104.13;5121089;28;20022;-60
2022/12/19 10:39:46;;;;;;;;;;;;;;;-1.10;100.00;99093.75;5120491;28;19938;-60
2022/12/19 10:42:16;;;;;;;;;;;;;;;-1.06;100.00;99102.97;5117596;28;20018;-60
2022/12/19 10:44:44;;;;;;;;;;;;;;;-1.12;100.00;99104.41;5118909;28;19934;-59
2022/12/19 10:47:14;;;;;;;;;;;;;;;-1.04;100.00;99102.78;5120779;28;19930;-59
2022/12/19 10:49:41;;;;;;;;;;;;;;;-1.15;100.00;99103.91;5119802;28;19930;-60
2022/12/19 10:52:09;;;;;;;;;;;;;;;-1.06;100.00;99102.13;5118641;28;19983;-60
2022/12/19 10:54:39;;;;;;;;;;;;;;;-0.97;100.00;99102.00;5124366;27;19939;-60
2022/12/19 10:57:19;;;;;;;;;;;;;;;-0.89;100.00;99109.03;5120899;28;19924;-60
2022/12/19 10:59:53;;;;;;;;;;;;;;;-0.87;100.00;99102.69;5119045;28;19923;-59
2022/12/19 11:02:27;;;;;;;;;;;;;;;-0.81;100.00;99109.91;5117445;28;19984;-59
2022/12/19 11:04:53;;;;;;;;;;;;;;;-0.95;100.00;99102.63;5120061;28;19995;-60
2022/12/19 11:07:20;;;;;;;;;;;;;;;-0.99;100.00;99097.91;5120752;28;20424;-59
2022/12/19 11:09:47;;;;;;;;;;;;;;;-1.00;100.00;99080.50;5118896;28;19970;-59
2022/12/19 11:12:14;;;;;;;;;;;;;;;-0.97;100.00;99074.94;5117261;28;19986;-61
2022/12/19 11:14:44;;;;;;;;;;;;;;;-0.99;100.00;99076.94;5118082;28;19924;-60
2022/12/19 11:17:25;;;;;;;;;;;;;;;-0.93;100.00;99061.38;5120776;28;19924;-61
2022/12/19 11:19:51;;;;;;;;;;;;;;;-0.96;100.00;99063.50;5116396;27;19924;-59
2022/12/19 11:22:21;;;;;;;;;;;;;;;-0.98;100.00;99052.31;5121680;28;19996;-60
2022/12/19 11:24:50;;;;;;;;;;;;;;;-0.96;100.00;99056.41;5122640;28;20006;-60
2022/12/19 11:27:30;;;;;;;;;;;;;;;-0.98;100.00;99036.59;5121015;28;19987;-59
2022/12/19 11:29:58;;;;;;;;;;;;;;;-0.86;100.00;99035.28;5117365;28;19979;-59
2022/12/19 11:32:29;;;;;;;;;;;;;;;-0.95;100.00;99026.59;5098790;28;19928;-60
2022/12/19 11:34:59;;;;;;;;;;;;;;;-0.89;100.00;99027.75;5120205;28;20011;-59
2022/12/19 11:37:32;;;;;;;;;;;;;;;-0.88;100.00;99030.22;5120344;28;19935;-60
2022/12/19 11:40:01;;;;;;;;;;;;;;;-0.95;100.00;99020.53;5120880;28;19975;-61
2022/12/19 11:42:30;;;;;;;;;;;;;;;-0.93;100.00;99011.56;5120928;28;19987;-59
2022/12/19 11:45:02;;;;;;;;;;;;;;;-0.97;100.00;99012.03;5124422;28;20018;-59
2022/12/19 11:47:32;;;;;;;;;;;;;;;-0.94;100.00;99019.56;5124447;28;19934;-60
2022/12/19 11:50:01;;;;;;;;;;;;;;;-0.88;100.00;98998.75;5120722;28;20456;-60
2022/12/19 11:52:36;;;;;;;;;;;;;;;-0.84;100.00;99005.31;5127636;27;20366;-60
2022/12/19 11:55:05;;;;;;;;;;;;;;;-0.84;100.00;99007.13;5121037;28;19959;-60
2022/12/19 11:57:31;;;;;;;;;;;;;;;-0.88;100.00;98996.13;5120549;28;19924;-59
2022/12/19 11:59:59;;;;;;;;;;;;;;;-0.80;100.00;99000.53;5123943;28;19948;-61
2022/12/19 12:02:36;;;;;;;;;;;;;;;-0.69;100.00;99001.06;5124226;28;19934;-59
2022/12/19 12:05:21;;;;;;;;;;;;;;;-0.73;100.00;99001.53;5120621;28;19983;-59
2022/12/19 12:07:53;;;;;;;;;;;;;;;-0.64;100.00;98997.91;5122720;28;20023;-60
2022/12/19 12:10:20;;;;;;;;;;;;;;;-0.60;100.00;99014.97;5123909;28;20555;-61
2022/12/19 12:12:55;;;;;;;;;;;;;;;-0.60;100.00;99010.56;5122079;28;19927;-59
2022/12/19 12:15:28;;;;;;;;;;;;;;;-0.50;100.00;99023.50;5120335;28;19924;-61
2022/12/19 12:17:59;;;;;;;;;;;;;;;-0.45;100.00;99012.50;5123248;28;19927;-60
2022/12/19 12:20:31;;;;;;;;;;;;;;;-0.43;100.00;99008.72;5123414;28;19939;-60
2022/12/19 12:23:05;;;;;;;;;;;;;;;-0.45;100.00;98997.56;5128221;27;19965;-60
2022/12/19 12:25:40;;;;;;;;;;;;;;;-0.42;100.00;98999.03;5123859;28;20023;-60
2022/12/19 12:28:15;;;;;;;;;;;;;;;1.42;100.00;98983.28;5111841;28;19967;-59
2022/12/19 12:30:49;;;;;;;;;;;;;;;4.38;100.00;98962.44;5111556;28;19928;-59
2022/12/19 12:33:20;;;;;;;;;;;;;;;5.59;100.00;98952.44;5111712;28;19949;-59
2022/12/19 12:35:49;;;;;;;;;;;;;;;6.22;100.00;98937.63;5111667;28;19935;-59
2022/12/19 12:38:27;;;;;;;;;;;;;;;6.83;100.00;98934.50;5111528;28;19983;-60
2022/12/19 12:40:59;;;;;;;;;;;;;;;7.22;100.00;98944.81;5111601;28;19924;-61
2022/12/19 12:43:35;;;;;;;;;;;;;;;7.57;100.00;98948.63;5111296;28;19983;-61
2022/12/19 12:46:03;;;;;;;;;;;;;;;7.91;100.00;98949.13;5119987;28;19983;-59